Terminal Aerodrome Forecast
Issued by NWS Lubbock, TX

Home | Current Version | Previous Version | Text Only | Print | Product List | Glossary On
Versions: 1 2 3 4 5 6 7 8 9 10 11 12 13 14 15 16 17 18 19
000
FTUS44 KLUB 230535
TAFLBB
TAF
KLBB 230535Z 2306/2406 04008KT P6SM SCT050 BKN100
      TEMPO 2306/2308 BKN025
     FM230800 02007KT P6SM SCT025 BKN050
      TEMPO 2308/2310 -TSRA BKN025CB
     FM231100 01018G28KT P6SM SCT050 BKN100
     FM240100 02007KT P6SM SKC=

USA.gov is the U.S. government's official web portal to all federal, state and local government web resources and services.